createdAt,value
2022-11-04T09:12:47.861Z,100119.34
2022-11-04T09:20:21.697Z,100089.09
2022-11-04T09:27:56.953Z,100087.34
2022-11-04T09:35:31.210Z,100093.59
2022-11-04T09:43:21.722Z,100095.34
2022-11-04T09:50:58.623Z,100095.31
2022-11-04T09:58:38.184Z,100108.66
2022-11-04T10:06:27.995Z,100149.66
2022-11-04T10:14:37.453Z,100148.75
2022-11-04T10:22:16.391Z,100122.97
2022-11-04T10:29:56.254Z,100142.53
2022-11-04T10:37:30.780Z,100166.59
2022-11-04T10:45:06.204Z,100162.16
2022-11-04T10:52:41.857Z,100159.47
2022-11-04T11:00:36.071Z,100161.25
2022-11-04T11:08:29.821Z,100184.44
2022-11-04T11:16:13.489Z,100204.91
2022-11-04T11:23:48.686Z,100195.97
2022-11-04T11:31:26.758Z,100228.03
2022-11-04T11:39:05.873Z,100236.06
2022-11-04T11:46:42.658Z,100215.63
2022-11-04T11:54:22.566Z,100212.06
2022-11-04T12:02:12.042Z,100209.41
2022-11-04T12:09:50.771Z,100212.97
2022-11-04T12:17:38.691Z,100204.94
2022-11-04T12:25:21.921Z,100212.06
2022-11-04T12:33:13.182Z,100215.63
2022-11-04T12:41:27.590Z,100212.94
2022-11-04T12:49:20.523Z,100225.41
2022-11-04T12:57:05.424Z,100226.31
2022-11-04T13:04:46.522Z,100225.41
2022-11-04T13:12:23.881Z,100238.78
2022-11-04T13:20:04.943Z,100244.09
2022-11-04T13:27:41.008Z,100251.22
2022-11-04T13:35:22.630Z,100254.78
2022-11-04T13:43:42.737Z,100253.00
2022-11-04T13:51:19.292Z,100254.75
2022-11-04T13:58:54.382Z,100237.88
2022-11-04T14:06:53.255Z,100243.22
2022-11-04T14:14:26.896Z,100240.56
2022-11-04T14:22:14.691Z,100251.25
2022-11-04T14:29:51.562Z,100258.38
2022-11-04T14:37:31.645Z,100260.13
2022-11-04T14:45:09.169Z,100266.34
2022-11-04T14:52:50.996Z,100282.38
2022-11-04T15:00:35.419Z,100289.47
2022-11-04T15:08:35.113Z,100289.47
2022-11-04T15:16:14.552Z,100288.56
2022-11-04T15:23:51.941Z,100287.66
2022-11-04T15:31:28.261Z,100299.19
2022-11-04T15:39:08.069Z,100317.00
2022-11-04T15:46:41.869Z,100325.00
2022-11-04T15:54:23.940Z,100298.25
2022-11-04T16:01:58.409Z,100314.25
2022-11-04T16:09:47.784Z,100341.81
2022-11-04T16:17:24.452Z,100327.59
2022-11-04T16:25:01.891Z,100337.38
2022-11-04T16:32:42.674Z,100354.25
2022-11-04T16:40:18.256Z,100363.16
2022-11-04T16:47:52.746Z,100372.91
2022-11-04T16:55:28.292Z,100378.22
2022-11-04T17:03:02.516Z,100377.31
2022-11-04T17:10:37.605Z,100391.53
2022-11-04T17:18:15.490Z,100391.53
2022-11-04T17:25:51.099Z,100388.81
2022-11-04T17:33:24.816Z,100395.94
2022-11-04T17:41:17.717Z,100400.31
2022-11-04T17:48:51.494Z,100419.91
2022-11-04T17:56:27.031Z,100423.44
2022-11-04T18:04:01.062Z,100423.44
2022-11-04T18:11:53.467Z,100431.44
2022-11-04T18:19:28.192Z,100433.13
2022-11-04T18:27:03.588Z,100433.09
2022-11-04T18:34:37.297Z,100448.22
2022-11-04T18:42:12.804Z,100443.75
2022-11-04T18:49:47.974Z,100448.19
2022-11-04T18:57:23.016Z,100452.63
2022-11-04T19:04:56.663Z,100456.16
2022-11-04T19:12:49.334Z,100449.03
2022-11-04T19:20:23.705Z,100460.59
2022-11-04T19:28:26.728Z,100463.19
2022-11-04T19:35:52.753Z,100465.88
2022-11-04T19:43:27.821Z,100464.91
2022-11-04T19:51:01.541Z,100471.13
2022-11-04T19:58:38.060Z,100468.41
2022-11-04T20:06:13.519Z,100479.06
2022-11-04T20:13:49.498Z,100480.78
2022-11-04T20:21:24.676Z,100503.03
2022-11-04T20:29:00.112Z,100502.19
2022-11-04T20:36:33.845Z,100502.13
2022-11-04T20:44:10.392Z,100501.22
2022-11-04T20:51:54.387Z,100515.44
2022-11-04T20:59:30.488Z,100521.66
2022-11-04T21:07:04.708Z,100527.00
2022-11-04T21:14:39.749Z,100535.91
2022-11-04T21:22:13.297Z,100535.00
2022-11-04T21:29:48.360Z,100545.63
2022-11-04T21:37:22.047Z,100539.34
2022-11-04T21:44:57.085Z,100555.41
2022-11-04T21:52:30.762Z,100551.94
2022-11-04T22:00:07.443Z,100551.00
2022-11-04T22:07:59.573Z,100555.47
2022-11-04T22:15:52.145Z,100571.47
2022-11-04T22:23:25.788Z,100579.47
2022-11-04T22:31:07.737Z,100590.13
2022-11-04T22:38:42.596Z,100582.97
2022-11-04T22:46:20.405Z,100589.16
2022-11-04T22:53:57.746Z,100592.59
2022-11-04T23:01:34.514Z,100588.97
2022-11-04T23:09:08.299Z,100589.78
2022-11-04T23:17:04.038Z,100604.00
2022-11-04T23:24:55.721Z,100609.28
2022-11-04T23:32:31.819Z,100617.28
2022-11-04T23:40:07.031Z,100618.19
2022-11-04T23:48:01.366Z,100620.81
2022-11-04T23:55:52.613Z,100628.78
